Time;durP1;ratioP1;P1;durP2;ratioP2;P2;SDS_P1;SDS_P2;PMS_P1;PMS_P2;Temp;Humidity;BMP_temperature;BMP_pressure;BME280_temperature;BME280_humidity;BME280_pressure;Samples;Min_cycle;Max_cycle;Signal;HPM_P1;HPM_P2
2022/03/28 00:00:05;;;;;;;;;34.25;32.50;;;;;11.66;52.12;101978.78;5008394;28;45513;-83
2022/03/28 00:02:31;;;;;;;;;36.25;33.25;;;;;11.42;52.01;101956.50;5008811;28;45356;-82
2022/03/28 00:04:57;;;;;;;;;36.50;34.50;;;;;11.13;52.04;101902.38;5008339;28;45525;-82
2022/03/28 00:07:23;;;;;;;;;42.00;34.25;;;;;11.58;52.53;101988.06;5008826;28;45192;-82
2022/03/28 00:09:48;;;;;;;;;36.25;34.25;;;;;11.27;52.05;101936.47;5008285;28;45281;-80
2022/03/28 00:12:14;;;;;;;;;36.75;34.50;;;;;11.51;52.51;101983.28;5008627;28;45165;-83
2022/03/28 00:14:39;;;;;;;;;37.50;34.00;;;;;11.49;52.35;101974.41;5008081;28;45355;-81
2022/03/28 00:17:05;;;;;;;;;35.00;33.00;;;;;11.47;52.32;101970.78;5008953;28;45372;-83
2022/03/28 00:19:31;;;;;;;;;39.00;34.75;;;;;10.77;52.49;101845.34;5007948;28;46308;-82
2022/03/28 00:21:56;;;;;;;;;29.33;29.33;;;;;11.13;53.13;101926.94;5008620;28;45022;-83
2022/03/28 00:24:22;;;;;;;;;34.75;33.00;;;;;11.14;53.27;101934.06;5008524;28;45705;-83
2022/03/28 00:26:48;;;;;;;;;34.50;33.50;;;;;11.13;53.46;101926.94;5008905;28;45015;-84
2022/03/28 00:29:13;;;;;;;;;36.00;33.75;;;;;10.90;53.28;101901.22;5007815;28;45537;-83
2022/03/28 00:31:39;;;;;;;;;41.75;36.00;;;;;10.97;52.61;101898.06;5008302;28;44923;-81
2022/03/28 00:34:04;;;;;;;;;42.50;36.25;;;;;10.96;52.14;101891.00;4988785;28;45255;-83
2022/03/28 00:36:30;;;;;;;;;40.75;36.00;;;;;10.99;52.13;101896.44;5006905;28;45127;-82
2022/03/28 00:38:55;;;;;;;;;37.50;34.00;;;;;11.39;52.19;101957.25;5007999;28;45219;-83
2022/03/28 00:41:21;;;;;;;;;40.25;35.50;;;;;11.20;52.18;101918.56;5007475;28;45258;-82
2022/03/28 00:43:54;;;;;;;;;31.75;30.00;;;;;11.22;52.18;101913.38;4990926;28;45211;-83
2022/03/28 00:46:20;;;;;;;;;43.00;35.75;;;;;11.10;51.79;101901.41;5007838;28;45534;-83
2022/03/28 00:48:45;;;;;;;;;44.25;35.50;;;;;11.06;51.89;101881.03;4988788;28;47478;-82
2022/03/28 00:51:11;;;;;;;;;38.00;33.50;;;;;11.23;51.84;101916.09;5008137;28;45296;-82
2022/03/28 00:53:38;;;;;;;;;36.75;34.25;;;;;10.90;52.19;101848.63;5007967;28;45231;-83
2022/03/28 00:56:03;;;;;;;;;35.75;33.50;;;;;11.02;51.72;101878.16;5007999;28;45225;-82
2022/03/28 00:58:29;;;;;;;;;39.75;33.75;;;;;11.30;51.65;101941.00;5006308;28;45801;-82
2022/03/28 01:00:54;;;;;;;;;37.00;33.00;;;;;11.07;52.24;101895.06;4989851;28;45450;-83
2022/03/28 01:03:19;;;;;;;;;34.75;31.75;;;;;11.10;52.03;101906.66;5004625;28;45648;-81
2022/03/28 01:05:45;;;;;;;;;47.67;36.33;;;;;11.27;52.35;101925.03;5010446;28;45323;-82
2022/03/28 01:08:10;;;;;;;;;36.67;31.67;;;;;11.05;52.63;101896.75;5011304;28;45481;-82
2022/03/28 01:10:35;;;;;;;;;35.50;33.25;;;;;11.00;52.59;101888.63;5010992;28;45383;-82
2022/03/28 01:13:01;;;;;;;;;38.50;33.00;;;;;10.82;53.25;101870.16;5011379;28;45173;-83
2022/03/28 01:15:27;;;;;;;;;39.00;35.25;;;;;10.95;53.15;101905.88;5010868;28;45197;-82
2022/03/28 01:18:08;;;;;;;;;35.00;32.75;;;;;10.95;52.98;101912.88;5009369;28;45222;-82
2022/03/28 01:20:36;;;;;;;;;35.50;32.75;;;;;10.91;53.30;101917.06;5011182;28;45461;-83
2022/03/28 01:23:02;;;;;;;;;36.25;32.75;;;;;10.88;53.29;101909.00;5011492;28;45409;-83
2022/03/28 01:25:29;;;;;;;;;37.75;33.25;;;;;10.53;53.43;101849.31;5010789;28;45200;-84
2022/03/28 01:27:55;;;;;;;;;37.50;33.50;;;;;10.93;53.64;101922.41;5011497;28;45799;-83
2022/03/28 01:30:22;;;;;;;;;38.00;32.50;;;;;10.81;53.84;101905.16;5010697;28;45315;-83
2022/03/28 01:32:48;;;;;;;;;38.25;34.25;;;;;10.88;54.07;101918.63;5010040;28;45305;-83
2022/03/28 01:35:25;;;;;;;;;33.75;30.50;;;;;10.72;54.04;101902.06;5008665;28;45411;-83
2022/03/28 01:37:50;;;;;;;;;35.75;33.50;;;;;10.57;54.34;101881.13;5011413;28;45409;-82
2022/03/28 01:40:15;;;;;;;;;34.67;33.33;;;;;10.64;54.32;101900.78;5011229;28;45453;-84
2022/03/28 01:42:41;;;;;;;;;34.75;32.75;;;;;10.46;54.53;101868.25;5011144;28;45382;-82
2022/03/28 01:45:06;;;;;;;;;34.75;29.50;;;;;10.42;54.29;101869.78;5006271;28;45294;-81
2022/03/28 01:47:32;;;;;;;;;39.75;36.25;;;;;10.61;54.71;101912.84;5010149;28;46055;-81
2022/03/28 01:49:57;;;;;;;;;38.33;35.67;;;;;10.36;54.78;101869.47;5011049;28;45086;-83
2022/03/28 01:52:22;;;;;;;;;31.67;28.33;;;;;10.13;54.83;101831.41;5010727;28;44948;-83
2022/03/28 01:54:48;;;;;;;;;35.75;33.00;;;;;10.22;55.08;101844.16;5010862;28;45228;-81
2022/03/28 01:57:13;;;;;;;;;40.25;34.75;;;;;10.48;54.61;101906.91;5021324;28;45499;-83
2022/03/28 01:59:39;;;;;;;;;36.00;34.00;;;;;10.05;54.81;101836.28;5030074;28;45133;-82
2022/03/28 02:02:04;;;;;;;;;40.50;34.75;;;;;10.16;54.92;101854.34;5031033;28;45145;-83
2022/03/28 02:04:32;;;;;;;;;34.75;33.25;;;;;10.14;55.09;101856.84;5028987;28;45089;-83
2022/03/28 02:06:57;;;;;;;;;34.00;32.00;;;;;10.37;55.55;101897.56;5030530;28;46055;-83
2022/03/28 02:09:22;;;;;;;;;33.50;32.00;;;;;10.17;55.35;101861.41;5010726;28;45212;-82
2022/03/28 02:11:47;;;;;;;;;45.00;35.33;;;;;10.05;55.25;101844.16;4993478;28;45204;-83
2022/03/28 02:14:13;;;;;;;;;34.00;32.33;;;;;9.79;55.36;101805.06;5009712;28;45436;-82
2022/03/28 02:16:38;;;;;;;;;36.00;34.00;;;;;10.14;55.47;101862.13;5009208;28;46286;-82
2022/03/28 02:19:03;;;;;;;;;38.25;33.00;;;;;10.15;55.83;101870.88;5010768;28;45386;-82
2022/03/28 02:21:29;;;;;;;;;41.67;35.67;;;;;9.92;55.58;101838.16;5010119;28;45169;-83
2022/03/28 02:23:54;;;;;;;;;34.75;32.00;;;;;9.88;55.94;101823.03;5010711;28;45317;-82
2022/03/28 02:26:20;;;;;;;;;38.33;34.00;;;;;9.27;55.81;101727.00;5009876;28;47033;-83
2022/03/28 02:28:45;;;;;;;;;36.00;33.75;;;;;10.12;55.59;101884.78;5010117;28;45098;-83
2022/03/28 02:31:10;;;;;;;;;33.25;30.50;;;;;9.93;55.69;101845.19;5010330;28;45143;-83
2022/03/28 02:33:36;;;;;;;;;42.25;34.75;;;;;10.00;55.55;101848.25;4992351;28;45058;-83
2022/03/28 02:36:02;;;;;;;;;33.50;31.25;;;;;10.03;55.66;101848.41;5005956;28;45557;-83
2022/03/28 02:38:27;;;;;;;;;36.50;34.00;;;;;10.15;56.10;101870.88;5010578;28;45637;-83
2022/03/28 02:40:53;;;;;;;;;34.50;33.00;;;;;9.87;56.03;101829.13;5010406;28;45170;-83
2022/03/28 02:43:21;;;;;;;;;37.25;34.75;;;;;10.19;56.12;101883.38;4991662;28;45211;-83
2022/03/28 02:45:46;;;;;;;;;38.75;33.00;;;;;9.90;56.22;101835.44;5008618;28;45409;-83
2022/03/28 02:48:12;;;;;;;;;40.00;35.50;;;;;9.82;55.94;101821.00;5010176;28;45499;-83
2022/03/28 02:50:37;;;;;;;;;43.25;37.00;;;;;9.81;55.71;101806.97;5009459;28;45443;-82
2022/03/28 02:53:03;;;;;;;;;36.50;34.00;;;;;10.11;56.01;101861.06;5007566;28;45529;-81
2022/03/28 02:55:28;;;;;;;;;32.75;31.50;;;;;9.83;56.46;101807.94;5009661;28;45839;-83
2022/03/28 02:57:53;;;;;;;;;33.00;30.33;;;;;9.96;56.30;101827.91;5008843;28;45455;-82
2022/03/28 03:00:19;;;;;;;;;35.75;33.25;;;;;9.78;56.10;101803.25;5009709;28;45212;-83
2022/03/28 03:02:44;;;;;;;;;38.75;34.75;;;;;9.83;56.00;101807.03;5010235;28;45314;-83
2022/03/28 03:05:11;;;;;;;;;33.25;31.25;;;;;10.11;56.51;101847.94;5007752;28;45640;-82
2022/03/28 03:07:37;;;;;;;;;35.75;33.75;;;;;9.66;56.19;101777.25;5009970;28;45013;-83
2022/03/28 03:10:03;;;;;;;;;32.00;27.75;;;;;9.89;56.37;101806.47;5009739;28;45360;-83
2022/03/28 03:12:29;;;;;;;;;40.00;34.50;;;;;9.69;56.20;101771.25;4989422;28;44984;-82
2022/03/28 03:14:54;;;;;;;;;36.00;34.00;;;;;9.90;56.62;101809.19;5006295;28;45651;-82
2022/03/28 03:17:20;;;;;;;;;38.00;34.00;;;;;10.05;56.77;101841.53;5005182;28;45537;-82
2022/03/28 03:19:46;;;;;;;;;38.00;34.50;;;;;10.04;56.63;101844.94;4988997;28;45396;-82
2022/03/28 03:22:14;;;;;;;;;36.75;33.75;;;;;10.02;56.14;101840.44;5009181;28;45235;-82
2022/03/28 03:24:40;;;;;;;;;38.25;34.75;;;;;9.42;56.09;101737.44;4988887;28;46567;-83
2022/03/28 03:27:05;;;;;;;;;41.50;37.00;;;;;9.93;56.31;101826.81;5008795;28;45048;-83
2022/03/28 03:29:31;;;;;;;;;41.25;35.75;;;;;9.79;56.24;101792.81;5007984;28;45120;-83
2022/03/28 03:31:56;;;;;;;;;41.00;36.25;;;;;9.62;56.59;101772.66;5009811;28;45290;-83
2022/03/28 03:34:22;;;;;;;;;41.67;37.00;;;;;9.78;56.64;101806.78;5006054;28;45491;-82
2022/03/28 03:36:47;;;;;;;;;48.00;39.50;;;;;9.88;56.81;101820.41;5009398;28;45212;-83
2022/03/28 03:39:12;;;;;;;;;43.00;34.33;;;;;9.56;56.45;101773.22;5009317;28;45014;-82
2022/03/28 03:41:38;;;;;;;;;42.25;36.25;;;;;9.80;56.68;101827.84;5007381;28;45158;-82
2022/03/28 03:44:06;;;;;;;;;40.00;32.75;;;;;9.63;56.76;101795.44;5009534;28;45902;-82
2022/03/28 03:46:32;;;;;;;;;37.75;35.00;;;;;9.44;57.06;101766.38;4989317;28;45539;-82
2022/03/28 03:48:57;;;;;;;;;41.00;36.75;;;;;9.52;56.72;101789.59;5008955;28;45243;-81
2022/03/28 03:51:22;;;;;;;;;37.25;34.25;;;;;9.43;57.32;101775.06;5009241;28;45063;-83
2022/03/28 03:53:48;;;;;;;;;40.25;34.75;;;;;9.50;57.52;101791.22;5009542;28;45701;-83
2022/03/28 03:56:13;;;;;;;;;43.25;36.50;;;;;9.44;57.33;101788.25;5008616;28;45384;-82
2022/03/28 03:58:38;;;;;;;;;40.25;34.75;;;;;9.37;57.41;101779.97;5007009;28;45275;-83
2022/03/28 04:01:04;;;;;;;;;45.75;37.50;;;;;9.35;57.57;101771.09;5008884;28;45174;-83
2022/03/28 04:03:29;;;;;;;;;32.25;31.00;;;;;9.36;57.49;101779.09;5009065;28;45194;-81
2022/03/28 04:05:54;;;;;;;;;38.25;35.50;;;;;9.33;57.39;101781.53;5009046;28;45265;-83
2022/03/28 04:08:20;;;;;;;;;39.67;36.33;;;;;9.63;57.43;101829.56;5007138;28;45120;-82
2022/03/28 04:10:45;;;;;;;;;38.25;34.00;;;;;9.53;57.65;101817.66;5008233;28;45227;-83
2022/03/28 04:13:11;;;;;;;;;39.25;34.50;;;;;9.30;57.91;101787.47;5005449;28;45278;-82
2022/03/28 04:15:37;;;;;;;;;39.75;34.75;;;;;9.26;57.78;101784.59;5008193;28;45397;-84
2022/03/28 04:18:02;;;;;;;;;44.00;36.25;;;;;9.10;57.97;101763.56;4991186;28;45372;-82
2022/03/28 04:20:29;;;;;;;;;38.50;34.50;;;;;9.22;57.98;101799.28;5008524;28;45362;-82
2022/03/28 04:22:55;;;;;;;;;40.50;36.25;;;;;9.09;58.25;101781.03;5008918;28;45196;-83
2022/03/28 04:25:20;;;;;;;;;38.00;35.50;;;;;8.99;58.33;101761.25;5008280;28;45066;-81
2022/03/28 04:27:46;;;;;;;;;40.75;36.50;;;;;9.12;58.39;101789.09;5008703;28;45102;-82
2022/03/28 04:30:12;;;;;;;;;39.25;35.25;;;;;9.26;58.52;101810.84;5008204;28;45410;-83
2022/03/28 04:32:38;;;;;;;;;40.00;36.75;;;;;9.25;58.28;101809.94;5004813;28;45901;-81
2022/03/28 04:35:05;;;;;;;;;50.75;38.25;;;;;9.02;58.13;101769.31;5008021;28;45041;-83
2022/03/28 04:37:35;;;;;;;;;39.25;34.75;;;;;9.22;58.23;101812.41;5008669;28;45156;-83
2022/03/28 04:40:02;;;;;;;;;38.00;31.75;;;;;9.03;58.19;101775.44;5008065;28;45468;-82
2022/03/28 04:42:28;;;;;;;;;35.00;31.25;;;;;8.87;58.63;101757.03;5007801;28;45355;-82
2022/03/28 04:44:53;;;;;;;;;36.67;34.67;;;;;8.57;58.96;101695.88;4990716;28;45166;-82
2022/03/28 04:47:18;;;;;;;;;38.67;36.33;;;;;9.18;59.19;101813.03;5008563;28;45273;-82
2022/03/28 04:49:43;;;;;;;;;42.00;37.00;;;;;9.09;58.62;101790.63;4987716;28;45422;-82
2022/03/28 04:52:09;;;;;;;;;38.67;35.00;;;;;9.22;58.88;101815.03;5008371;28;45608;-82
2022/03/28 04:54:36;;;;;;;;;40.67;35.67;;;;;9.02;58.82;101779.78;5007698;28;45026;-83
2022/03/28 04:57:03;;;;;;;;;34.00;31.75;;;;;9.16;59.06;101803.25;5007916;28;45325;-83
2022/03/28 04:59:29;;;;;;;;;44.50;38.75;;;;;8.86;59.09;101745.63;5007855;28;45088;-82
2022/03/28 05:01:54;;;;;;;;;43.75;37.75;;;;;8.93;59.24;101758.28;5008360;28;45349;-82
2022/03/28 05:04:19;;;;;;;;;36.33;34.67;;;;;9.13;59.38;101797.84;5005740;28;45157;-83
2022/03/28 05:06:45;;;;;;;;;37.67;35.00;;;;;8.78;59.41;101726.84;5008717;28;45175;-88
2022/03/28 05:09:10;;;;;;;;;44.00;35.67;;;;;9.08;58.90;101781.84;5007532;28;45058;-82
2022/03/28 05:11:35;;;;;;;;;41.25;34.50;;;;;9.10;59.37;101780.22;5006917;28;46115;-82
2022/03/28 05:14:02;;;;;;;;;37.00;35.00;;;;;8.97;59.09;101764.63;5007167;28;45136;-81
2022/03/28 05:16:27;;;;;;;;;38.75;35.25;;;;;8.94;59.42;101764.44;5016011;28;45353;-83
2022/03/28 05:18:52;;;;;;;;;41.00;35.50;;;;;8.92;59.54;101763.44;5017232;28;45343;-83
2022/03/28 05:21:18;;;;;;;;;39.67;35.00;;;;;8.98;59.71;101775.19;5007714;28;45183;-82
2022/03/28 05:23:44;;;;;;;;;44.33;38.33;;;;;8.93;59.89;101767.88;5008038;28;45153;-83
2022/03/28 05:26:09;;;;;;;;;43.75;37.75;;;;;8.97;59.96;101764.63;5006982;28;45204;-82
2022/03/28 05:28:34;;;;;;;;;40.75;36.50;;;;;9.06;60.04;101786.09;5006252;28;45424;-80
2022/03/28 05:31:00;;;;;;;;;42.67;37.67;;;;;9.23;59.67;101803.72;5006885;28;45334;-82
2022/03/28 05:33:25;;;;;;;;;39.00;35.00;;;;;9.28;59.66;101801.34;5007315;28;45568;-81
2022/03/28 05:35:52;;;;;;;;;44.75;38.75;;;;;9.20;59.53;101784.25;5007333;28;45425;-81
2022/03/28 05:38:18;;;;;;;;;40.25;36.00;;;;;9.17;59.52;101777.13;5007431;28;45299;-82
2022/03/28 05:40:44;;;;;;;;;45.50;36.75;;;;;9.27;59.58;101794.31;5007199;28;45372;-82
2022/03/28 05:43:09;;;;;;;;;40.25;36.00;;;;;9.22;59.77;101791.41;5007335;28;45510;-82
2022/03/28 05:45:36;;;;;;;;;43.00;37.00;;;;;9.39;59.64;101822.94;5007110;28;45355;-81
2022/03/28 05:48:02;;;;;;;;;46.75;36.75;;;;;9.06;59.97;101762.50;5006311;28;45125;-82
2022/03/28 05:50:27;;;;;;;;;42.75;36.00;;;;;9.38;59.85;101821.13;5006721;28;47025;-83
2022/03/28 05:52:54;;;;;;;;;32.00;29.33;;;;;9.25;59.97;101788.03;5011441;28;45298;-82
2022/03/28 05:55:20;;;;;;;;;44.25;37.00;;;;;9.10;59.81;101761.84;5009715;28;45145;-82
2022/03/28 05:57:45;;;;;;;;;47.75;38.50;;;;;9.03;60.07;101739.63;4991797;28;45445;-83
2022/03/28 06:00:13;;;;;;;;;41.75;37.50;;;;;9.17;60.00;101769.28;4992736;28;47339;-81
2022/03/28 06:02:39;;;;;;;;;43.50;37.00;;;;;9.47;60.30;101816.41;4992482;28;45603;-83
2022/03/28 06:05:06;;;;;;;;;51.50;38.50;;;;;9.27;60.31;101776.84;5011025;28;45406;-82
2022/03/28 06:07:32;;;;;;;;;44.50;38.00;;;;;9.30;60.40;101771.75;5009187;28;45112;-82
2022/03/28 06:09:58;;;;;;;;;45.00;37.75;;;;;9.21;60.56;101752.91;5006756;28;45986;-83
2022/03/28 06:12:23;;;;;;;;;50.75;41.50;;;;;9.36;60.25;101772.91;5006076;28;46210;-81
2022/03/28 06:14:49;;;;;;;;;42.75;36.75;;;;;9.23;60.14;101748.63;4991819;28;45623;-82
2022/03/28 06:17:25;;;;;;;;;46.75;37.75;;;;;9.34;60.18;101754.47;4990667;28;45453;-83
2022/03/28 06:19:51;;;;;;;;;40.25;36.25;;;;;9.55;60.53;101800.25;4989761;28;45703;-82
2022/03/28 06:22:17;;;;;;;;;43.75;36.75;;;;;9.52;60.64;101775.59;4991248;28;46145;-83
2022/03/28 06:24:44;;;;;;;;;50.50;38.75;;;;;9.38;60.54;101752.91;4990225;28;45449;-82
2022/03/28 06:27:09;;;;;;;;;45.75;38.25;;;;;9.65;60.34;101792.88;4973769;28;45536;-84
2022/03/28 06:29:34;;;;;;;;;45.00;39.25;;;;;9.35;60.31;101737.00;4991540;28;45626;-83
2022/03/28 06:32:00;;;;;;;;;44.50;38.25;;;;;9.56;60.65;101772.31;4991862;28;45594;-82
2022/03/28 06:34:25;;;;;;;;;49.25;39.00;;;;;9.57;60.90;101767.13;4991824;28;45977;-82
2022/03/28 06:36:50;;;;;;;;;47.75;40.00;;;;;9.41;60.94;101719.91;4990022;28;45430;-83
2022/03/28 06:39:16;;;;;;;;;49.33;41.00;;;;;9.54;60.74;101743.34;4989355;28;45724;-83
2022/03/28 06:41:42;;;;;;;;;45.50;39.00;;;;;9.69;60.45;101769.53;4990195;28;45888;-81
2022/03/28 06:44:11;;;;;;;;;52.00;43.75;;;;;9.81;60.01;101785.94;4990808;28;45857;-83
2022/03/28 06:46:37;;;;;;;;;48.50;41.25;;;;;9.47;59.79;101712.34;4989742;28;45643;-82
2022/03/28 06:49:05;;;;;;;;;53.25;41.75;;;;;10.04;60.28;101812.53;4990587;28;46020;-89
2022/03/28 06:51:51;;;;;;;;;52.75;42.50;;;;;10.07;59.84;101804.84;4976447;28;45525;-89
2022/03/28 06:54:19;;;;;;;;;45.25;38.25;;;;;9.97;59.81;101774.53;4941958;28;45530;-80
2022/03/28 06:56:46;;;;;;;;;54.25;42.50;;;;;9.90;59.61;101753.13;5002457;28;45394;-80
2022/03/28 06:59:12;;;;;;;;;65.25;51.25;;;;;10.24;60.08;101805.75;4998753;28;46114;-79
2022/03/28 07:01:38;;;;;;;;;60.75;50.00;;;;;10.14;59.76;101778.06;5008116;28;45688;-80
2022/03/28 07:04:04;;;;;;;;;64.25;51.25;;;;;10.07;59.49;101744.41;5003368;28;45314;-80
2022/03/28 07:06:29;;;;;;;;;62.25;49.75;;;;;10.26;59.50;101773.50;5002488;28;45327;-81
2022/03/28 07:08:55;;;;;;;;;61.50;48.50;;;;;10.05;60.02;101717.19;4991820;28;45361;-80
2022/03/28 07:11:20;;;;;;;;;62.67;49.33;;;;;10.53;59.81;101794.13;5004189;28;45256;-81
2022/03/28 07:13:46;;;;;;;;;59.50;49.25;;;;;10.49;59.56;101774.69;5000401;28;45688;-80
2022/03/28 07:16:11;;;;;;;;;60.25;49.50;;;;;10.57;59.77;101769.81;5008327;28;45413;-80
2022/03/28 07:18:36;;;;;;;;;61.50;47.00;;;;;10.53;60.01;101747.72;5009290;28;45889;-80
2022/03/28 07:21:02;;;;;;;;;64.50;49.00;;;;;10.80;59.72;101784.13;5009387;28;45266;-80
2022/03/28 07:23:27;;;;;;;;;58.50;47.50;;;;;10.77;59.44;101769.09;5003490;28;45641;-80
2022/03/28 07:25:53;;;;;;;;;59.75;48.75;;;;;10.65;59.08;101726.41;4999044;28;45099;-80
2022/03/28 07:28:19;;;;;;;;;57.50;46.25;;;;;10.85;59.57;101761.59;4989635;28;45676;-80
2022/03/28 07:30:45;;;;;;;;;57.00;46.33;;;;;11.04;59.50;101779.19;5009355;28;45404;-79
2022/03/28 07:33:10;;;;;;;;;55.25;45.50;;;;;10.43;59.42;101661.34;5007543;28;45633;-79
2022/03/28 07:35:37;;;;;;;;;57.50;45.75;;;;;11.09;59.16;101756.63;5005431;28;45169;-81
2022/03/28 07:38:08;;;;;;;;;57.50;47.25;;;;;10.75;59.41;101690.97;5012877;28;46776;-81
2022/03/28 07:40:39;;;;;;;;;60.25;47.50;;;;;11.35;59.47;101777.19;4986355;28;45284;-90
2022/03/28 07:43:05;;;;;;;;;54.00;43.75;;;;;10.69;59.31;101645.94;5004075;28;45182;-84
2022/03/28 07:45:34;;;;;;;;;58.75;47.75;;;;;11.39;59.16;101748.41;5002934;28;45658;-88
2022/03/28 07:47:59;;;;;;;;;60.50;49.00;;;;;10.61;59.36;101589.50;5006543;28;47524;-82
2022/03/28 07:50:25;;;;;;;;;56.50;46.25;;;;;11.51;59.29;101735.81;5005028;28;46087;-87
2022/03/28 07:52:50;;;;;;;;;61.25;49.50;;;;;11.05;59.47;101665.25;4978862;28;45392;-85
2022/03/28 07:55:17;;;;;;;;;57.25;47.00;;;;;10.67;59.21;101568.75;4988295;28;45111;-82
2022/03/28 07:57:43;;;;;;;;;62.00;49.00;;;;;11.05;59.47;101596.84;4978573;28;47140;-82
2022/03/28 08:00:12;;;;;;;;;63.00;50.50;;;;;11.50;60.01;101682.25;4993522;28;45804;-81
2022/03/28 08:02:38;;;;;;;;;61.00;48.00;;;;;11.72;59.52;101693.75;5010073;28;45015;-83
2022/03/28 08:05:05;;;;;;;;;57.50;47.50;;;;;11.80;59.57;101693.28;5003665;28;45156;-82
2022/03/28 08:07:31;;;;;;;;;64.00;50.50;;;;;12.27;60.15;101765.66;4997887;28;47084;-81
2022/03/28 08:09:57;;;;;;;;;62.50;49.00;;;;;11.71;60.45;101653.34;4986081;28;45968;-83
2022/03/28 08:12:23;;;;;;;;;64.00;50.75;;;;;11.88;60.10;101654.16;4982781;28;45312;-82
2022/03/28 08:14:50;;;;;;;;;60.50;49.75;;;;;11.60;60.06;101596.69;4981253;28;46010;-82
2022/03/28 08:17:18;;;;;;;;;64.50;51.00;;;;;12.20;60.04;101687.16;4975636;28;45667;-82
2022/03/28 08:19:43;;;;;;;;;60.25;48.25;;;;;12.69;60.21;101755.16;5004950;28;45088;-80
2022/03/28 08:22:09;;;;;;;;;67.00;51.00;;;;;12.57;60.30;101715.09;4996760;28;45342;-82
2022/03/28 08:24:34;;;;;;;;;68.00;52.75;;;;;12.77;60.34;101731.75;5007943;28;45156;-81
2022/03/28 08:26:59;;;;;;;;;65.75;52.25;;;;;12.41;60.61;101658.16;5001756;28;45689;-81
2022/03/28 08:29:25;;;;;;;;;68.50;53.50;;;;;12.48;60.35;101656.69;4982672;28;45353;-83
2022/03/28 08:31:51;;;;;;;;;68.00;51.00;;;;;12.36;60.07;101615.81;4993358;28;45276;-82
2022/03/28 08:34:19;;;;;;;;;64.25;50.00;;;;;12.64;59.82;101656.47;4990632;28;45424;-82
2022/03/28 08:36:45;;;;;;;;;64.25;51.00;;;;;12.98;60.47;101700.06;4998006;28;45617;-84
2022/03/28 08:39:10;;;;;;;;;66.50;53.25;;;;;13.26;60.20;101731.13;5001442;28;45573;-85
2022/03/28 08:41:36;;;;;;;;;64.00;51.67;;;;;13.19;59.89;101703.53;5006749;28;45515;-82
2022/03/28 08:44:02;;;;;;;;;69.50;53.75;;;;;13.15;59.75;101680.47;5006276;28;45192;-82
2022/03/28 08:46:31;;;;;;;;;63.75;50.75;;;;;13.41;59.74;101705.31;4997692;28;45558;-83
2022/03/28 08:48:58;;;;;;;;;67.25;52.00;;;;;13.28;59.59;101674.00;5005858;28;45350;-83
2022/03/28 08:51:24;;;;;;;;;65.75;53.00;;;;;13.48;59.53;101695.88;5006758;28;44943;-83
2022/03/28 08:53:50;;;;;;;;;69.00;53.50;;;;;13.65;59.57;101708.88;5020469;28;45085;-83
2022/03/28 08:56:16;;;;;;;;;67.75;52.75;;;;;13.56;59.56;101686.50;4994854;28;45690;-83
2022/03/28 08:58:42;;;;;;;;;66.75;52.00;;;;;13.84;59.60;101713.13;4995202;28;45388;-84
2022/03/28 09:01:08;;;;;;;;;64.50;50.50;;;;;13.87;59.18;101704.38;5003060;28;45729;-82
2022/03/28 09:03:39;;;;;;;;;67.00;52.50;;;;;13.96;58.84;101703.81;4971559;28;45339;-84
2022/03/28 09:06:28;;;;;;;;;62.50;52.00;;;;;14.25;58.79;101733.94;4995163;28;46112;-83
2022/03/28 09:08:53;;;;;;;;;64.00;51.75;;;;;14.11;58.47;101707.91;4976177;28;45370;-83
2022/03/28 09:11:20;;;;;;;;;65.67;51.00;;;;;14.22;58.59;101684.47;4981618;28;45818;-84
2022/03/28 09:13:45;;;;;;;;;65.50;51.75;;;;;14.29;57.87;101691.81;4987953;28;45250;-83
2022/03/28 09:16:18;;;;;;;;;68.00;53.33;;;;;14.55;57.69;101727.09;4999631;28;45426;-83
2022/03/28 09:18:43;;;;;;;;;64.25;50.50;;;;;14.40;57.65;101687.78;5001850;28;45108;-82
2022/03/28 09:21:14;;;;;;;;;61.25;49.00;;;;;14.66;57.17;101719.53;5002347;28;45188;-82
2022/03/28 09:23:45;;;;;;;;;64.50;50.75;;;;;14.72;56.95;101725.00;4986702;28;45534;-83
2022/03/28 09:26:13;;;;;;;;;60.25;49.00;;;;;14.76;57.17;101718.97;4992044;28;45872;-83
2022/03/28 09:28:47;;;;;;;;;65.25;50.25;;;;;14.71;56.77;101699.41;4999064;28;45102;-83
2022/03/28 09:31:18;;;;;;;;;62.50;50.25;;;;;14.92;56.80;101715.09;5010373;28;46206;-82
2022/03/28 09:34:04;;;;;;;;;60.75;47.75;;;;;14.99;56.14;101716.19;5003044;28;45115;-83
2022/03/28 09:36:37;;;;;;;;;60.00;49.00;;;;;15.00;55.99;101703.00;5007762;28;46329;-82
2022/03/28 09:39:05;;;;;;;;;63.00;50.50;;;;;14.93;55.30;101678.09;5010839;28;45515;-83
2022/03/28 09:41:31;;;;;;;;;61.75;48.75;;;;;15.11;55.19;101693.63;4991099;28;47300;-83
2022/03/28 09:43:56;;;;;;;;;61.00;47.50;;;;;15.13;54.76;101678.72;4989606;28;45910;-81
2022/03/28 09:46:26;;;;;;;;;56.50;44.25;;;;;15.21;54.34;101676.28;5005314;28;45170;-83
2022/03/28 09:48:51;;;;;;;;;57.75;46.75;;;;;15.34;54.16;101681.13;5002581;28;45501;-83
2022/03/28 09:51:21;;;;;;;;;59.25;46.25;;;;;15.26;54.37;101647.28;4996407;28;45376;-82
2022/03/28 09:53:46;;;;;;;;;55.75;44.75;;;;;15.40;53.64;101652.16;4994472;28;45106;-84
2022/03/28 09:56:12;;;;;;;;;55.33;45.00;;;;;15.44;53.43;101639.91;5005022;28;47161;-83
2022/03/28 09:59:03;;;;;;;;;60.33;46.33;;;;;15.78;52.71;101688.59;4992788;28;45440;-83
2022/03/28 10:01:40;;;;;;;;;55.25;43.75;;;;;15.44;52.18;101610.75;4974247;28;45484;-82
2022/03/28 10:04:08;;;;;;;;;55.50;42.50;;;;;15.89;51.73;101677.44;4989054;28;45777;-82
2022/03/28 10:06:38;;;;;;;;;53.00;44.00;;;;;15.89;51.11;101656.22;4995506;28;46675;-84
2022/03/28 10:09:05;;;;;;;;;52.50;42.00;;;;;16.07;51.07;101662.91;5001790;28;45567;-83
2022/03/28 10:11:31;;;;;;;;;54.00;41.50;;;;;16.06;50.85;101634.56;5009679;28;45125;-84
2022/03/28 10:13:58;;;;;;;;;59.25;45.00;;;;;16.14;50.65;101633.03;5010481;28;45277;-84
2022/03/28 10:16:23;;;;;;;;;55.50;44.50;;;;;16.32;50.31;101652.06;5002275;28;45169;-84
2022/03/28 10:18:50;;;;;;;;;53.25;43.25;;;;;16.46;50.01;101647.13;5009546;28;44961;-83
2022/03/28 10:21:15;;;;;;;;;49.25;39.75;;;;;16.61;49.39;101657.22;5009326;28;45139;-84
2022/03/28 10:23:44;;;;;;;;;50.67;40.33;;;;;16.41;48.95;101599.25;4994540;28;45125;-83
2022/03/28 10:26:12;;;;;;;;;50.25;40.75;;;;;16.85;49.54;101654.28;4992349;28;45495;-83
2022/03/28 10:28:38;;;;;;;;;48.50;40.50;;;;;16.61;48.67;101589.09;5000845;28;45622;-80
2022/03/28 10:31:16;;;;;;;;;50.00;39.00;;;;;17.03;47.92;101638.75;4999219;28;45771;-81
2022/03/28 10:33:51;;;;;;;;;39.25;35.00;;;;;17.12;47.25;101622.13;5004842;28;45196;-82
2022/03/28 10:36:23;;;;;;;;;44.25;36.00;;;;;17.21;47.00;101628.53;4987725;28;46650;-81
2022/03/28 10:38:51;;;;;;;;;39.25;34.00;;;;;17.26;46.12;101612.72;4962436;28;45964;-80
2022/03/28 10:41:19;;;;;;;;;37.50;33.25;;;;;17.11;45.17;101573.44;4992088;28;45604;-81
2022/03/28 10:43:45;;;;;;;;;39.50;32.25;;;;;17.32;45.20;101593.34;5002308;28;45291;-80
2022/03/28 10:46:12;;;;;;;;;39.50;33.75;;;;;17.57;44.80;101624.84;5000944;28;45568;-83
2022/03/28 10:48:48;;;;;;;;;40.00;32.50;;;;;17.67;45.34;101616.19;4977895;28;46200;-83
2022/03/28 10:51:21;;;;;;;;;45.75;35.25;;;;;17.64;45.01;101575.38;4985886;28;45589;-82
2022/03/28 10:53:58;;;;;;;;;43.00;35.00;;;;;17.91;44.31;101606.94;4976465;28;45518;-83
2022/03/28 10:56:25;;;;;;;;;39.00;33.25;;;;;17.75;43.98;101544.59;4999209;28;47982;-83
2022/03/28 10:58:56;;;;;;;;;33.75;31.00;;;;;18.13;43.13;101598.47;5004051;28;45373;-81
2022/03/28 11:01:30;;;;;;;;;41.25;33.50;;;;;18.27;42.58;101585.38;4962344;28;45926;-83
2022/03/28 11:04:02;;;;;;;;;38.75;34.75;;;;;18.35;43.23;101581.09;4986880;28;45584;-83
2022/03/28 11:07:03;;;;;;;;;38.00;33.00;;;;;18.45;43.17;101580.38;5001483;28;45824;-83
2022/03/28 11:09:41;;;;;;;;;39.00;32.25;;;;;18.53;42.49;101572.50;4990869;28;45992;-82